Time;durP1;ratioP1;P1;durP2;ratioP2;P2;SDS_P1;SDS_P2;PMS_P1;PMS_P2;Temp;Humidity;BMP_temperature;BMP_pressure;BME280_temperature;BME280_humidity;BME280_pressure;Samples;Min_cycle;Max_cycle;Signal;HPM_P1;HPM_P2
2021/03/04 00:00:29;;;;;;;39.90;22.35;;;;;;;;;;5137349;27;20362;-75
2021/03/04 00:02:55;;;;;;;46.67;22.75;;;;;;;;;;5137455;27;20472;-75
2021/03/04 00:05:20;;;;;;;44.63;22.23;;;;;;;;;;5137634;27;20056;-75
2021/03/04 00:07:46;;;;;;;36.75;21.73;;;;;;;;;;5137317;27;20042;-75
2021/03/04 00:10:13;;;;;;;36.30;20.65;;;;;;;;;;5137460;27;20055;-75
2021/03/04 00:12:39;;;;;;;34.50;20.77;;;;;;;;;;5137271;27;20031;-75
2021/03/04 00:15:07;;;;;;;40.35;23.05;;;;;;;;;;5137040;27;20097;-74
2021/03/04 00:17:32;;;;;;;49.13;22.92;;;;;;;;;;5136822;27;20035;-74
2021/03/04 00:19:57;;;;;;;40.95;22.35;;;;;;;;;;5136475;27;20038;-74
2021/03/04 00:22:23;;;;;;;38.08;20.30;;;;;;;;;;5137107;27;20053;-74
2021/03/04 00:24:48;;;;;;;37.80;19.90;;;;;;;;;;5135820;27;20037;-74
2021/03/04 00:27:13;;;;;;;38.75;22.20;;;;;;;;;;5137041;27;20039;-74
2021/03/04 00:29:39;;;;;;;44.45;21.50;;;;;;;;;;5137092;27;20445;-74
2021/03/04 00:32:05;;;;;;;42.55;22.02;;;;;;;;;;5136765;27;20062;-74
2021/03/04 00:34:30;;;;;;;40.72;20.63;;;;;;;;;;5118674;27;20039;-75
2021/03/04 00:36:55;;;;;;;40.80;20.08;;;;;;;;;;5136881;27;20035;-76
2021/03/04 00:39:21;;;;;;;33.35;19.98;;;;;;;;;;5136688;27;20438;-74
2021/03/04 00:41:46;;;;;;;35.05;20.38;;;;;;;;;;5136746;27;20031;-74
2021/03/04 00:44:12;;;;;;;37.70;22.08;;;;;;;;;;5136363;27;20448;-74
2021/03/04 00:46:37;;;;;;;45.13;25.58;;;;;;;;;;5136737;27;20031;-74
2021/03/04 00:49:03;;;;;;;47.60;23.90;;;;;;;;;;5136282;27;20035;-74
2021/03/04 00:51:29;;;;;;;43.22;24.00;;;;;;;;;;5136517;27;20058;-74
2021/03/04 00:53:54;;;;;;;42.92;22.42;;;;;;;;;;5136564;27;20487;-74
2021/03/04 00:56:20;;;;;;;41.58;21.83;;;;;;;;;;5118050;27;20031;-76
2021/03/04 00:58:46;;;;;;;38.20;22.55;;;;;;;;;;5136831;27;20039;-74
2021/03/04 01:01:11;;;;;;;39.22;21.80;;;;;;;;;;5118175;27;20035;-75
2021/03/04 01:03:37;;;;;;;38.88;21.73;;;;;;;;;;5136419;27;20039;-74
2021/03/04 01:06:04;;;;;;;41.75;21.83;;;;;;;;;;5136181;27;20080;-76
2021/03/04 01:08:29;;;;;;;42.80;24.02;;;;;;;;;;5136244;27;20035;-74
2021/03/04 01:10:55;;;;;;;40.15;22.58;;;;;;;;;;5136414;27;20377;-74
2021/03/04 01:13:22;;;;;;;38.30;23.98;;;;;;;;;;5118029;27;20039;-74
2021/03/04 01:15:48;;;;;;;38.17;22.33;;;;;;;;;;5135921;27;20023;-74
2021/03/04 01:18:14;;;;;;;40.95;23.52;;;;;;;;;;5136373;27;20433;-74
2021/03/04 01:20:39;;;;;;;44.10;23.85;;;;;;;;;;5136287;27;20031;-74
2021/03/04 01:23:05;;;;;;;49.58;23.90;;;;;;;;;;5117647;27;20038;-74
2021/03/04 01:25:30;;;;;;;38.15;22.00;;;;;;;;;;5135807;27;20039;-74
2021/03/04 01:27:55;;;;;;;40.47;23.83;;;;;;;;;;5135885;27;20095;-74
2021/03/04 01:30:25;;;;;;;44.85;24.98;;;;;;;;;;5135922;27;20114;-74
2021/03/04 01:32:50;;;;;;;49.67;26.17;;;;;;;;;;5135766;27;20067;-74
2021/03/04 01:35:16;;;;;;;48.22;27.10;;;;;;;;;;5135803;27;20058;-74
2021/03/04 01:37:42;;;;;;;45.83;27.40;;;;;;;;;;5134870;27;20038;-74
2021/03/04 01:40:14;;;;;;;44.78;25.30;;;;;;;;;;5135874;27;20499;-74
2021/03/04 01:42:40;;;;;;;44.90;23.73;;;;;;;;;;5117696;27;20551;-74
2021/03/04 01:45:07;;;;;;;41.88;22.25;;;;;;;;;;5117140;27;20047;-74
2021/03/04 01:47:34;;;;;;;37.78;20.85;;;;;;;;;;5135847;27;20499;-74
2021/03/04 01:50:00;;;;;;;41.25;22.48;;;;;;;;;;5135668;27;20118;-75
2021/03/04 01:52:26;;;;;;;47.13;24.02;;;;;;;;;;5134826;27;20042;-74
2021/03/04 01:54:52;;;;;;;47.97;26.67;;;;;;;;;;5117090;27;20404;-74
2021/03/04 01:57:18;;;;;;;47.30;24.92;;;;;;;;;;5135267;27;20027;-74
2021/03/04 01:59:43;;;;;;;50.22;27.00;;;;;;;;;;5135480;27;20688;-74
2021/03/04 02:02:16;;;;;;;46.35;26.02;;;;;;;;;;5135103;27;20027;-76
2021/03/04 02:04:41;;;;;;;44.50;26.02;;;;;;;;;;5134792;27;20035;-77
2021/03/04 02:07:15;;;;;;;45.05;25.23;;;;;;;;;;5116544;27;20114;-76
2021/03/04 02:09:48;;;;;;;44.35;23.20;;;;;;;;;;5134881;27;20027;-77
2021/03/04 02:12:20;;;;;;;41.20;22.33;;;;;;;;;;5134902;27;20084;-77
2021/03/04 02:14:55;;;;;;;45.35;22.67;;;;;;;;;;5134912;27;20035;-77
2021/03/04 02:17:25;;;;;;;48.65;26.88;;;;;;;;;;5134997;27;20079;-77
2021/03/04 02:19:53;;;;;;;52.80;25.80;;;;;;;;;;5116668;27;20047;-77
2021/03/04 02:22:42;;;;;;;54.28;29.83;;;;;;;;;;5135276;27;20026;-77
2021/03/04 02:25:51;;;;;;;53.47;29.42;;;;;;;;;;5134616;27;20027;-77
2021/03/04 02:28:18;;;;;;;49.72;27.95;;;;;;;;;;5095302;27;20043;-77
2021/03/04 02:30:44;;;;;;;46.67;26.98;;;;;;;;;;5135199;27;20027;-77
2021/03/04 02:33:14;;;;;;;44.45;25.75;;;;;;;;;;5135092;27;20035;-77
2021/03/04 02:35:41;;;;;;;44.72;26.13;;;;;;;;;;5134868;27;20473;-77
2021/03/04 02:38:10;;;;;;;47.63;26.65;;;;;;;;;;5134098;27;20047;-77
2021/03/04 02:40:38;;;;;;;46.42;27.30;;;;;;;;;;5135006;27;20063;-77
2021/03/04 02:43:08;;;;;;;42.58;25.42;;;;;;;;;;5135033;27;20353;-77
2021/03/04 02:45:34;;;;;;;49.17;27.55;;;;;;;;;;5134877;27;20031;-77
2021/03/04 02:48:00;;;;;;;42.40;26.00;;;;;;;;;;5098836;27;20046;-77
2021/03/04 02:50:25;;;;;;;43.90;24.92;;;;;;;;;;5133935;27;20396;-76
2021/03/04 02:52:52;;;;;;;47.90;26.50;;;;;;;;;;5134514;27;20391;-76
2021/03/04 02:55:18;;;;;;;47.20;27.98;;;;;;;;;;5115807;28;20027;-77
2021/03/04 02:57:46;;;;;;;46.08;25.92;;;;;;;;;;5134326;27;20046;-77
2021/03/04 03:00:16;;;;;;;43.85;26.25;;;;;;;;;;5134224;27;20039;-77
2021/03/04 03:02:44;;;;;;;49.10;27.05;;;;;;;;;;5134410;28;20034;-76
2021/03/04 03:05:11;;;;;;;46.55;26.80;;;;;;;;;;5134134;28;20023;-76
2021/03/04 03:07:42;;;;;;;45.88;24.13;;;;;;;;;;5134443;28;20376;-77
2021/03/04 03:10:11;;;;;;;56.72;27.65;;;;;;;;;;5115596;28;20110;-77
2021/03/04 03:12:38;;;;;;;47.85;28.38;;;;;;;;;;5134470;28;20039;-74
2021/03/04 03:15:10;;;;;;;48.42;27.10;;;;;;;;;;5134555;28;20126;-75
2021/03/04 03:17:36;;;;;;;49.13;27.50;;;;;;;;;;5134066;28;20043;-76
2021/03/04 03:20:10;;;;;;;47.72;27.27;;;;;;;;;;5134299;28;20430;-77
2021/03/04 03:22:37;;;;;;;47.00;27.23;;;;;;;;;;5134438;28;20110;-76
2021/03/04 03:25:07;;;;;;;48.33;27.42;;;;;;;;;;5117582;28;20110;-76
2021/03/04 03:27:33;;;;;;;50.38;26.65;;;;;;;;;;5115830;28;20043;-76
2021/03/04 03:30:14;;;;;;;50.90;26.73;;;;;;;;;;5133369;28;20103;-77
2021/03/04 03:32:44;;;;;;;44.97;26.27;;;;;;;;;;5134371;28;20109;-76
2021/03/04 03:35:13;;;;;;;47.83;25.67;;;;;;;;;;5133846;27;20038;-75
2021/03/04 03:37:38;;;;;;;41.47;25.17;;;;;;;;;;5133513;28;20035;-74
2021/03/04 03:40:06;;;;;;;45.22;27.13;;;;;;;;;;5133947;28;20112;-74
2021/03/04 03:42:34;;;;;;;56.58;30.65;;;;;;;;;;5133812;28;20049;-73
2021/03/04 03:45:01;;;;;;;59.20;29.95;;;;;;;;;;5133273;27;20055;-74
2021/03/04 03:47:27;;;;;;;56.03;30.17;;;;;;;;;;5133980;28;20046;-74
2021/03/04 03:49:54;;;;;;;51.60;29.33;;;;;;;;;;5132916;28;20039;-75
2021/03/04 03:52:20;;;;;;;51.22;29.92;;;;;;;;;;5134298;28;20358;-72
2021/03/04 03:54:45;;;;;;;71.25;32.05;;;;;;;;;;5133744;27;20038;-72
2021/03/04 03:57:13;;;;;;;61.22;31.25;;;;;;;;;;5134251;28;20083;-72
2021/03/04 03:59:40;;;;;;;50.38;29.80;;;;;;;;;;5135842;27;20035;-75
2021/03/04 04:02:06;;;;;;;75.70;37.33;;;;;;;;;;5119318;27;20031;-76
2021/03/04 04:04:32;;;;;;;71.30;35.75;;;;;;;;;;5137648;27;20065;-75
2021/03/04 04:06:58;;;;;;;70.68;33.97;;;;;;;;;;5137600;27;20031;-78
2021/03/04 04:09:24;;;;;;;62.67;32.15;;;;;;;;;;5138658;27;20039;-77
2021/03/04 04:11:50;;;;;;;60.17;31.33;;;;;;;;;;5139215;27;20039;-78
2021/03/04 04:14:15;;;;;;;49.67;30.23;;;;;;;;;;5139134;27;20045;-78
2021/03/04 04:16:41;;;;;;;49.30;28.35;;;;;;;;;;5139173;27;20038;-77
2021/03/04 04:19:07;;;;;;;50.10;28.63;;;;;;;;;;5139592;27;20035;-77
2021/03/04 04:21:33;;;;;;;54.60;28.33;;;;;;;;;;5139031;27;20027;-77
2021/03/04 04:23:58;;;;;;;49.28;26.67;;;;;;;;;;5137346;27;20038;-75
2021/03/04 04:26:24;;;;;;;56.08;30.25;;;;;;;;;;5137197;27;20031;-75
2021/03/04 04:28:49;;;;;;;55.05;31.00;;;;;;;;;;5136795;27;20027;-77
2021/03/04 04:31:15;;;;;;;52.95;29.77;;;;;;;;;;5139227;27;20624;-77
2021/03/04 04:33:40;;;;;;;57.90;29.55;;;;;;;;;;5138044;27;20027;-77
2021/03/04 04:36:06;;;;;;;62.90;29.85;;;;;;;;;;5138913;27;20027;-77
2021/03/04 04:38:32;;;;;;;57.95;30.88;;;;;;;;;;5138333;27;20039;-75
2021/03/04 04:40:57;;;;;;;68.07;34.38;;;;;;;;;;5138323;27;20027;-77
2021/03/04 04:43:22;;;;;;;54.00;29.70;;;;;;;;;;5138651;27;20358;-78
2021/03/04 04:45:48;;;;;;;55.30;31.35;;;;;;;;;;5136506;27;20031;-75
2021/03/04 04:48:13;;;;;;;58.92;31.95;;;;;;;;;;5136842;27;20075;-75
2021/03/04 04:50:39;;;;;;;66.43;33.85;;;;;;;;;;5136647;27;20031;-75
2021/03/04 04:53:04;;;;;;;61.88;32.75;;;;;;;;;;5136580;27;20037;-75
2021/03/04 04:55:30;;;;;;;57.33;33.42;;;;;;;;;;5136327;27;20488;-75
2021/03/04 04:57:55;;;;;;;59.42;32.88;;;;;;;;;;5136675;27;20043;-75
2021/03/04 05:00:21;;;;;;;68.80;34.55;;;;;;;;;;5136674;27;20106;-75
2021/03/04 05:02:47;;;;;;;57.60;32.95;;;;;;;;;;5118107;27;20035;-75
2021/03/04 05:05:12;;;;;;;57.03;32.80;;;;;;;;;;5136794;27;20035;-77
2021/03/04 05:07:38;;;;;;;59.80;31.65;;;;;;;;;;5137635;27;20031;-78
2021/03/04 05:10:05;;;;;;;59.17;29.83;;;;;;;;;;5136782;27;20042;-78
2021/03/04 05:12:30;;;;;;;66.10;34.08;;;;;;;;;;5136563;27;20046;-78
2021/03/04 05:14:56;;;;;;;62.70;34.55;;;;;;;;;;5136753;27;20033;-77
2021/03/04 05:17:21;;;;;;;72.90;35.38;;;;;;;;;;5138683;27;20042;-78
2021/03/04 05:19:47;;;;;;;73.45;35.95;;;;;;;;;;5137363;27;20035;-77
2021/03/04 05:22:13;;;;;;;80.68;38.45;;;;;;;;;;5137023;27;20110;-77
2021/03/04 05:24:38;;;;;;;75.72;37.03;;;;;;;;;;5136483;27;20495;-77
2021/03/04 05:27:04;;;;;;;71.60;34.88;;;;;;;;;;5136932;27;20031;-77
2021/03/04 05:29:29;;;;;;;76.75;38.15;;;;;;;;;;5136616;27;20027;-77
2021/03/04 05:31:55;;;;;;;78.88;41.90;;;;;;;;;;5137059;27;20418;-77
2021/03/04 05:34:20;;;;;;;80.90;40.20;;;;;;;;;;5136477;27;20496;-77
2021/03/04 05:36:46;;;;;;;70.05;35.45;;;;;;;;;;5136461;27;20080;-77
2021/03/04 05:39:11;;;;;;;59.47;34.05;;;;;;;;;;5136361;27;20047;-77
2021/03/04 05:41:36;;;;;;;66.30;34.63;;;;;;;;;;5136718;27;20035;-77
2021/03/04 05:44:05;;;;;;;79.20;38.13;;;;;;;;;;5135378;27;20047;-75
2021/03/04 05:46:33;;;;;;;70.03;37.38;;;;;;;;;;5135950;27;20056;-77
2021/03/04 05:49:00;;;;;;;77.60;38.58;;;;;;;;;;5135936;27;20043;-77
2021/03/04 05:51:26;;;;;;;90.03;45.05;;;;;;;;;;5134259;27;20035;-77
2021/03/04 05:53:59;;;;;;;70.43;38.45;;;;;;;;;;5135652;27;20384;-77
2021/03/04 05:56:25;;;;;;;83.50;42.75;;;;;;;;;;5116542;27;20121;-77
2021/03/04 05:58:51;;;;;;;75.22;41.10;;;;;;;;;;5116904;27;20039;-77
2021/03/04 06:01:18;;;;;;;70.95;38.47;;;;;;;;;;5135348;27;20037;-74
2021/03/04 06:03:45;;;;;;;67.40;39.13;;;;;;;;;;5116863;27;20078;-77
2021/03/04 06:06:10;;;;;;;84.05;44.65;;;;;;;;;;5135122;27;20054;-77
2021/03/04 06:08:36;;;;;;;71.95;39.45;;;;;;;;;;5116559;27;20035;-77
2021/03/04 06:11:03;;;;;;;74.55;39.63;;;;;;;;;;5134795;27;20396;-77
2021/03/04 06:13:29;;;;;;;75.60;40.05;;;;;;;;;;5135014;27;20118;-77
2021/03/04 06:15:55;;;;;;;67.55;38.03;;;;;;;;;;5116401;27;20099;-76
2021/03/04 06:18:21;;;;;;;67.32;36.28;;;;;;;;;;5116678;27;20476;-76
2021/03/04 06:20:46;;;;;;;61.83;35.92;;;;;;;;;;5134147;27;20512;-76
2021/03/04 06:23:12;;;;;;;75.88;38.95;;;;;;;;;;5133924;27;20075;-76
2021/03/04 06:25:38;;;;;;;85.03;42.05;;;;;;;;;;5134739;27;20035;-76
2021/03/04 06:28:07;;;;;;;76.18;40.42;;;;;;;;;;5134698;27;20470;-76
2021/03/04 06:30:40;;;;;;;65.75;37.00;;;;;;;;;;5134945;27;20062;-76
2021/03/04 06:33:08;;;;;;;74.82;40.22;;;;;;;;;;5116390;27;20038;-76
2021/03/04 06:35:41;;;;;;;82.32;42.22;;;;;;;;;;5134560;27;20075;-76
2021/03/04 06:38:17;;;;;;;61.50;36.33;;;;;;;;;;5134414;27;20039;-76
2021/03/04 06:40:44;;;;;;;62.58;35.70;;;;;;;;;;5134404;27;20031;-76
2021/03/04 06:43:20;;;;;;;60.38;35.72;;;;;;;;;;5134713;27;20171;-78
2021/03/04 06:45:47;;;;;;;61.63;34.47;;;;;;;;;;5134595;27;20052;-77
2021/03/04 06:48:14;;;;;;;60.65;34.17;;;;;;;;;;5134267;27;20104;-76
2021/03/04 06:50:43;;;;;;;59.63;34.88;;;;;;;;;;5115858;27;20477;-75
2021/03/04 06:53:11;;;;;;;64.70;34.80;;;;;;;;;;5134429;27;20035;-76
2021/03/04 06:55:53;;;;;;;62.05;35.47;;;;;;;;;;5134316;27;20035;-75
2021/03/04 06:58:46;;;;;;;65.90;34.33;;;;;;;;;;5134436;27;20039;-75
2021/03/04 07:01:13;;;;;;;62.88;35.65;;;;;;;;;;5133561;27;20465;-75
2021/03/04 07:03:48;;;;;;;60.53;36.70;;;;;;;;;;5115859;27;20027;-75
2021/03/04 07:06:16;;;;;;;61.10;34.75;;;;;;;;;;5115990;28;20032;-75
2021/03/04 07:08:43;;;;;;;63.40;37.53;;;;;;;;;;5134396;28;20461;-76
2021/03/04 07:11:16;;;;;;;61.42;35.75;;;;;;;;;;5134277;28;20110;-75
2021/03/04 07:13:43;;;;;;;66.43;38.17;;;;;;;;;;5133784;27;20476;-77
2021/03/04 07:16:15;;;;;;;73.72;42.38;;;;;;;;;;5133894;28;20076;-77
2021/03/04 07:18:51;;;;;;;76.85;44.83;;;;;;;;;;5133951;28;20046;-77
2021/03/04 07:21:18;;;;;;;77.50;42.75;;;;;;;;;;5115464;28;20422;-77
2021/03/04 07:23:46;;;;;;;73.00;41.08;;;;;;;;;;5134054;27;20074;-76
2021/03/04 07:26:13;;;;;;;67.25;39.80;;;;;;;;;;5115854;28;20027;-75
2021/03/04 07:28:40;;;;;;;71.03;40.03;;;;;;;;;;5134226;28;20442;-76
2021/03/04 07:31:07;;;;;;;67.03;38.03;;;;;;;;;;5133811;28;20046;-78
2021/03/04 07:33:36;;;;;;;94.90;46.08;;;;;;;;;;5134400;27;20031;-77
2021/03/04 07:36:06;;;;;;;97.20;55.85;;;;;;;;;;5119585;27;20031;-77
2021/03/04 07:38:33;;;;;;;107.90;63.50;;;;;;;;;;5138522;27;20369;-77
2021/03/04 07:41:00;;;;;;;108.28;61.03;;;;;;;;;;5138621;27;20438;-75
2021/03/04 07:43:25;;;;;;;89.57;57.17;;;;;;;;;;5139692;27;20113;-77
2021/03/04 07:45:51;;;;;;;87.40;55.45;;;;;;;;;;5138651;27;20073;-77
2021/03/04 07:48:17;;;;;;;85.18;54.55;;;;;;;;;;5138127;27;20034;-75
2021/03/04 07:50:57;;;;;;;84.40;53.13;;;;;;;;;;5137872;27;20050;-74
2021/03/04 07:53:23;;;;;;;86.68;52.10;;;;;;;;;;5120195;27;20035;-76
2021/03/04 07:55:50;;;;;;;101.20;52.67;;;;;;;;;;5139367;27;20525;-75
2021/03/04 07:58:16;;;;;;;84.13;50.72;;;;;;;;;;5137952;27;20039;-76
2021/03/04 08:00:41;;;;;;;84.75;49.88;;;;;;;;;;5137976;27;20062;-78
2021/03/04 08:03:07;;;;;;;79.93;46.95;;;;;;;;;;5138158;27;20046;-78
2021/03/04 08:05:34;;;;;;;75.55;46.80;;;;;;;;;;5137897;27;20485;-77
2021/03/04 08:08:10;;;;;;;75.00;43.83;;;;;;;;;;5137473;27;20046;-76
2021/03/04 08:10:54;;;;;;;69.85;43.90;;;;;;;;;;5137302;27;20035;-74
2021/03/04 08:13:32;;;;;;;79.80;45.13;;;;;;;;;;5119377;27;20067;-75
2021/03/04 08:15:57;;;;;;;67.78;42.70;;;;;;;;;;5137715;27;20027;-75
2021/03/04 08:18:26;;;;;;;69.97;41.92;;;;;;;;;;5137580;27;20046;-75
2021/03/04 08:20:52;;;;;;;78.18;45.60;;;;;;;;;;5136707;27;20031;-75
2021/03/04 08:23:19;;;;;;;80.72;45.15;;;;;;;;;;5137238;27;20035;-76
2021/03/04 08:25:45;;;;;;;77.25;46.10;;;;;;;;;;5137326;27;20066;-76
2021/03/04 08:28:23;;;;;;;74.90;46.83;;;;;;;;;;5136862;27;20035;-76
2021/03/04 08:30:49;;;;;;;77.38;48.30;;;;;;;;;;5137420;27;20189;-76
2021/03/04 08:33:14;;;;;;;73.97;47.35;;;;;;;;;;5136998;27;20113;-76
2021/03/04 08:35:44;;;;;;;70.72;45.60;;;;;;;;;;5137099;27;20071;-74
2021/03/04 08:38:12;;;;;;;86.22;48.47;;;;;;;;;;5137145;27;20039;-76
2021/03/04 08:40:58;;;;;;;78.60;47.92;;;;;;;;;;5118858;27;20043;-76
2021/03/04 08:43:28;;;;;;;83.72;50.80;;;;;;;;;;5137478;27;20095;-76
2021/03/04 08:45:59;;;;;;;81.03;47.60;;;;;;;;;;5136434;27;20043;-75
2021/03/04 08:48:24;;;;;;;77.38;47.13;;;;;;;;;;5118365;27;20039;-76
2021/03/04 08:50:52;;;;;;;75.60;47.67;;;;;;;;;;5137456;27;20023;-79
2021/03/04 08:53:26;;;;;;;75.72;46.42;;;;;;;;;;5132287;27;20035;-76
2021/03/04 08:55:53;;;;;;;80.25;46.63;;;;;;;;;;5128659;27;20030;-77
2021/03/04 08:58:20;;;;;;;75.47;46.55;;;;;;;;;;5124662;27;20046;-76
2021/03/04 09:00:56;;;;;;;76.07;49.35;;;;;;;;;;5127948;27;20038;-78
2021/03/04 09:03:25;;;;;;;85.65;49.75;;;;;;;;;;5105831;27;20043;-76
2021/03/04 09:06:02;;;;;;;84.15;49.58;;;;;;;;;;5127274;27;20471;-77
2021/03/04 09:08:33;;;;;;;68.25;45.30;;;;;;;;;;5117767;27;20031;-77
2021/03/04 09:10:58;;;;;;;77.63;46.80;;;;;;;;;;5129744;27;20038;-78
2021/03/04 09:13:27;;;;;;;77.35;47.03;;;;;;;;;;5124416;27;20023;-77
2021/03/04 09:15:56;;;;;;;71.68;47.17;;;;;;;;;;5125873;27;20023;-76
2021/03/04 09:18:24;;;;;;;67.47;44.97;;;;;;;;;;5125687;27;20039;-77
2021/03/04 09:20:53;;;;;;;90.35;50.53;;;;;;;;;;5129211;27;20066;-77
2021/03/04 09:23:20;;;;;;;88.22;51.38;;;;;;;;;;5109564;27;20035;-79
2021/03/04 09:25:46;;;;;;;80.20;48.63;;;;;;;;;;5108626;27;20036;-78
2021/03/04 09:28:15;;;;;;;78.43;47.92;;;;;;;;;;5133562;27;20038;-78
2021/03/04 09:30:42;;;;;;;74.30;47.05;;;;;;;;;;5130729;27;20031;-80
2021/03/04 09:33:24;;;;;;;72.75;46.10;;;;;;;;;;5135116;27;20042;-81
2021/03/04 09:35:55;;;;;;;70.68;45.95;;;;;;;;;;5142666;27;20034;-82
2021/03/04 09:38:21;;;;;;;75.95;45.92;;;;;;;;;;5139135;27;20051;-79
2021/03/04 09:40:47;;;;;;;75.45;47.58;;;;;;;;;;5134994;27;20558;-79
2021/03/04 09:43:15;;;;;;;70.75;46.28;;;;;;;;;;5103876;28;20031;-79
2021/03/04 09:45:45;;;;;;;81.07;52.25;;;;;;;;;;5135100;27;20050;-79
2021/03/04 09:48:11;;;;;;;86.00;52.05;;;;;;;;;;5133442;27;20043;-79
2021/03/04 09:50:36;;;;;;;133.32;73.53;;;;;;;;;;5094258;27;20088;-78
2021/03/04 09:53:03;;;;;;;109.85;64.25;;;;;;;;;;5124888;27;20039;-79
2021/03/04 09:55:42;;;;;;;124.32;68.93;;;;;;;;;;5136214;27;20441;-79
2021/03/04 09:58:15;;;;;;;146.10;79.78;;;;;;;;;;5121445;27;20050;-78
2021/03/04 10:00:44;;;;;;;164.93;84.85;;;;;;;;;;5120594;27;20468;-78
2021/03/04 10:03:12;;;;;;;179.05;92.60;;;;;;;;;;5120806;27;20039;-77
2021/03/04 10:05:50;;;;;;;187.57;96.32;;;;;;;;;;5138525;27;20113;-80
2021/03/04 10:08:17;;;;;;;190.05;98.05;;;;;;;;;;5137369;27;20084;-77
2021/03/04 10:10:44;;;;;;;189.55;95.10;;;;;;;;;;5119931;27;20167;-78
2021/03/04 10:13:09;;;;;;;179.43;91.05;;;;;;;;;;5137881;27;20146;-80
2021/03/04 10:15:40;;;;;;;189.82;96.00;;;;;;;;;;5120456;27;20433;-79
2021/03/04 10:18:14;;;;;;;203.65;100.65;;;;;;;;;;5140177;27;20039;-82
2021/03/04 10:20:44;;;;;;;202.48;100.75;;;;;;;;;;5118144;27;20051;-78
2021/03/04 10:23:10;;;;;;;206.13;101.20;;;;;;;;;;5139029;27;20046;-80
2021/03/04 10:25:36;;;;;;;184.07;96.07;;;;;;;;;;5119582;27;20066;-83
2021/03/04 10:28:03;;;;;;;186.73;92.95;;;;;;;;;;5119861;27;20015;-79
2021/03/04 10:30:32;;;;;;;181.25;92.50;;;;;;;;;;5120597;27;20023;-79
2021/03/04 10:33:00;;;;;;;177.10;92.55;;;;;;;;;;5118216;28;20059;-81
2021/03/04 10:35:26;;;;;;;173.05;93.43;;;;;;;;;;5117146;28;20087;-79
2021/03/04 10:37:52;;;;;;;159.68;86.63;;;;;;;;;;5096573;28;20046;-78
2021/03/04 10:40:19;;;;;;;167.65;87.95;;;;;;;;;;5097363;28;20409;-77
2021/03/04 10:42:44;;;;;;;167.75;89.60;;;;;;;;;;5114689;28;20058;-77
2021/03/04 10:45:12;;;;;;;176.80;88.72;;;;;;;;;;5115308;28;20051;-79
2021/03/04 10:47:39;;;;;;;173.43;88.88;;;;;;;;;;5115099;28;20561;-77
2021/03/04 10:50:07;;;;;;;158.45;84.72;;;;;;;;;;5114678;28;20031;-77
2021/03/04 10:52:32;;;;;;;159.93;83.28;;;;;;;;;;5114938;28;20032;-77
2021/03/04 10:54:58;;;;;;;164.70;84.60;;;;;;;;;;5122379;27;20533;-77
2021/03/04 10:57:23;;;;;;;151.70;81.65;;;;;;;;;;5137079;27;20035;-78
2021/03/04 10:59:49;;;;;;;150.75;79.13;;;;;;;;;;5134544;27;20035;-76
2021/03/04 11:02:15;;;;;;;148.18;81.35;;;;;;;;;;5134442;27;20372;-76
2021/03/04 11:04:40;;;;;;;149.32;80.88;;;;;;;;;;5134378;27;20073;-76
2021/03/04 11:07:06;;;;;;;144.15;79.43;;;;;;;;;;5116962;28;20126;-76
2021/03/04 11:09:31;;;;;;;161.57;81.72;;;;;;;;;;5134807;27;20108;-76
2021/03/04 11:11:57;;;;;;;160.45;80.65;;;;;;;;;;5133862;28;20046;-79
2021/03/04 11:14:22;;;;;;;146.38;78.65;;;;;;;;;;5099942;28;20032;-80
2021/03/04 11:16:47;;;;;;;141.05;75.13;;;;;;;;;;5116032;28;20051;-76
2021/03/04 11:19:13;;;;;;;151.10;78.22;;;;;;;;;;5114403;28;20377;-77
2021/03/04 11:21:41;;;;;;;154.35;75.53;;;;;;;;;;5095672;28;20098;-77
2021/03/04 11:24:07;;;;;;;149.55;76.38;;;;;;;;;;5098881;28;20488;-76
2021/03/04 11:26:33;;;;;;;140.60;72.18;;;;;;;;;;5137207;28;20039;-77
2021/03/04 11:28:58;;;;;;;158.13;76.32;;;;;;;;;;5117776;28;20043;-77
2021/03/04 11:31:24;;;;;;;147.60;75.05;;;;;;;;;;5136602;28;20042;-78
2021/03/04 11:33:49;;;;;;;145.70;71.65;;;;;;;;;;5137760;27;20035;-79
2021/03/04 11:36:15;;;;;;;150.60;73.53;;;;;;;;;;5122889;28;20024;-77
2021/03/04 11:38:40;;;;;;;139.27;70.07;;;;;;;;;;5123379;28;20039;-79
2021/03/04 11:41:06;;;;;;;149.20;72.43;;;;;;;;;;5135108;28;20035;-77
2021/03/04 11:43:31;;;;;;;151.32;70.78;;;;;;;;;;5132931;27;20042;-79
2021/03/04 11:45:56;;;;;;;161.35;76.43;;;;;;;;;;5134592;28;20404;-78
2021/03/04 11:48:22;;;;;;;190.13;89.20;;;;;;;;;;5134927;28;20034;-78
2021/03/04 11:50:48;;;;;;;153.23;75.00;;;;;;;;;;5135641;28;20064;-80
2021/03/04 11:53:13;;;;;;;140.43;66.82;;;;;;;;;;5136889;28;20035;-78
2021/03/04 11:55:38;;;;;;;138.38;64.45;;;;;;;;;;5135925;27;20035;-79
2021/03/04 11:58:04;;;;;;;125.15;61.30;;;;;;;;;;5136664;28;20114;-80
2021/03/04 12:00:31;;;;;;;127.88;62.42;;;;;;;;;;5136176;28;20083;-78
2021/03/04 12:02:56;;;;;;;121.78;60.83;;;;;;;;;;5115694;28;20476;-77
2021/03/04 12:05:21;;;;;;;123.60;59.15;;;;;;;;;;5115194;28;20043;-77
2021/03/04 12:07:47;;;;;;;129.05;62.28;;;;;;;;;;5133463;28;20042;-78
2021/03/04 12:10:14;;;;;;;130.40;62.13;;;;;;;;;;5115370;28;20082;-77
2021/03/04 12:12:40;;;;;;;128.73;59.25;;;;;;;;;;5133572;28;20042;-77
2021/03/04 12:15:06;;;;;;;122.30;57.42;;;;;;;;;;5115409;28;20023;-77
2021/03/04 12:17:31;;;;;;;134.63;60.75;;;;;;;;;;5133393;28;20043;-77
2021/03/04 12:19:57;;;;;;;140.48;60.65;;;;;;;;;;5133790;27;20035;-79
2021/03/04 12:22:22;;;;;;;125.00;56.50;;;;;;;;;;5119067;27;20042;-77
2021/03/04 12:24:48;;;;;;;116.82;56.00;;;;;;;;;;5137848;27;20042;-78
2021/03/04 12:27:13;;;;;;;133.82;61.60;;;;;;;;;;5138165;27;20570;-78
2021/03/04 12:29:39;;;;;;;120.07;56.22;;;;;;;;;;5137735;27;20049;-79
2021/03/04 12:32:05;;;;;;;120.13;55.90;;;;;;;;;;5119083;27;20118;-77
2021/03/04 12:34:31;;;;;;;114.28;53.20;;;;;;;;;;5138025;27;20039;-78
2021/03/04 12:36:56;;;;;;;107.78;51.92;;;;;;;;;;5137153;27;20039;-77
2021/03/04 12:39:22;;;;;;;107.30;51.35;;;;;;;;;;5118645;27;20088;-77
2021/03/04 12:41:47;;;;;;;124.05;54.20;;;;;;;;;;5138202;27;20039;-77
2021/03/04 12:44:14;;;;;;;118.05;56.22;;;;;;;;;;5138222;27;20108;-79
2021/03/04 12:46:40;;;;;;;132.98;57.22;;;;;;;;;;5137193;27;20038;-76
2021/03/04 12:49:05;;;;;;;115.43;53.85;;;;;;;;;;5136423;27;20031;-75
2021/03/04 12:51:31;;;;;;;122.15;53.05;;;;;;;;;;5118853;27;20038;-76
2021/03/04 12:53:56;;;;;;;115.65;52.90;;;;;;;;;;5137108;27;20113;-76
2021/03/04 12:56:21;;;;;;;112.70;52.72;;;;;;;;;;5136990;27;20045;-76
2021/03/04 12:58:47;;;;;;;116.75;54.42;;;;;;;;;;5119772;27;20039;-80
2021/03/04 13:01:12;;;;;;;116.97;53.97;;;;;;;;;;5138111;27;20046;-78
2021/03/04 13:03:38;;;;;;;114.18;51.63;;;;;;;;;;5138210;27;20030;-78
2021/03/04 13:06:04;;;;;;;110.40;51.25;;;;;;;;;;5137842;27;20521;-78
2021/03/04 13:08:30;;;;;;;107.70;49.78;;;;;;;;;;5130814;27;20457;-77
2021/03/04 13:10:56;;;;;;;109.80;49.97;;;;;;;;;;5110385;27;20042;-76
2021/03/04 13:13:22;;;;;;;96.40;45.63;;;;;;;;;;5133741;27;20019;-77
2021/03/04 13:15:47;;;;;;;97.97;46.42;;;;;;;;;;5136145;27;20123;-77
2021/03/04 13:18:13;;;;;;;102.10;47.42;;;;;;;;;;5135869;27;20035;-77
2021/03/04 13:20:39;;;;;;;97.93;45.65;;;;;;;;;;5117043;27;20521;-77
2021/03/04 13:23:05;;;;;;;83.32;42.28;;;;;;;;;;5137966;27;20035;-78
2021/03/04 13:25:30;;;;;;;88.85;41.45;;;;;;;;;;5118791;27;20062;-79
2021/03/04 13:27:56;;;;;;;73.85;37.95;;;;;;;;;;5118684;27;20073;-78
2021/03/04 13:30:22;;;;;;;79.40;38.78;;;;;;;;;;5117728;27;20027;-76
2021/03/04 13:32:47;;;;;;;73.43;35.90;;;;;;;;;;5117206;27;20042;-75
2021/03/04 13:35:13;;;;;;;62.75;33.75;;;;;;;;;;5136073;27;20031;-75
2021/03/04 13:37:38;;;;;;;68.30;33.10;;;;;;;;;;5133687;27;20489;-75
2021/03/04 13:40:06;;;;;;;69.07;33.83;;;;;;;;;;5134308;27;20035;-76
2021/03/04 13:42:31;;;;;;;65.68;33.03;;;;;;;;;;5135408;27;20134;-76
2021/03/04 13:44:56;;;;;;;68.18;34.25;;;;;;;;;;5135277;27;20114;-76
2021/03/04 13:47:22;;;;;;;70.65;34.22;;;;;;;;;;5135665;27;20391;-76
2021/03/04 13:49:47;;;;;;;68.25;31.98;;;;;;;;;;5135524;27;20039;-75
2021/03/04 13:52:13;;;;;;;86.38;36.03;;;;;;;;;;5135851;27;20039;-76
2021/03/04 13:54:38;;;;;;;70.20;35.45;;;;;;;;;;5135963;27;20049;-75
2021/03/04 13:57:04;;;;;;;81.93;36.38;;;;;;;;;;5136193;27;20023;-75
2021/03/04 13:59:30;;;;;;;78.78;35.13;;;;;;;;;;5116911;27;20137;-76
2021/03/04 14:01:56;;;;;;;85.93;37.38;;;;;;;;;;5117228;27;20077;-76
2021/03/04 14:04:21;;;;;;;75.68;36.42;;;;;;;;;;5116633;27;20103;-75
2021/03/04 14:06:48;;;;;;;85.57;37.05;;;;;;;;;;5135491;27;20030;-75
2021/03/04 14:09:13;;;;;;;85.40;38.03;;;;;;;;;;5135534;27;20046;-75
2021/03/04 14:11:39;;;;;;;92.25;39.45;;;;;;;;;;5135358;27;20122;-75
2021/03/04 14:14:04;;;;;;;89.53;39.90;;;;;;;;;;5116681;27;20433;-75